sensor_id;sensor_type;location;lat;lon;timestamp;pressure;altitude;pressure_sealevel;temperature;humidity
69836;BME280;57132;51.972;4.450;2023-02-02T00:01:50;102109.13;;;7.33;100.00
69836;BME280;57132;51.972;4.450;2023-02-02T00:04:20;102122.41;;;7.33;100.00
69836;BME280;57132;51.972;4.450;2023-02-02T00:06:46;102124.03;;;7.37;100.00
69836;BME280;57132;51.972;4.450;2023-02-02T00:09:13;102104.56;;;7.36;100.00
69836;BME280;57132;51.972;4.450;2023-02-02T00:11:41;102115.06;;;7.39;100.00
69836;BME280;57132;51.972;4.450;2023-02-02T00:14:07;102122.22;;;7.37;100.00
69836;BME280;57132;51.972;4.450;2023-02-02T00:16:37;102112.38;;;7.41;100.00
69836;BME280;57132;51.972;4.450;2023-02-02T00:19:14;102119.47;;;7.41;100.00
69836;BME280;57132;51.972;4.450;2023-02-02T00:21:41;102119.50;;;7.39;100.00
69836;BME280;57132;51.972;4.450;2023-02-02T00:24:08;102121.22;;;7.40;100.00
69836;BME280;57132;51.972;4.450;2023-02-02T00:26:35;102121.22;;;7.40;100.00
69836;BME280;57132;51.972;4.450;2023-02-02T00:29:00;102120.34;;;7.41;100.00
69836;BME280;57132;51.972;4.450;2023-02-02T00:31:26;102133.47;;;7.44;100.00
69836;BME280;57132;51.972;4.450;2023-02-02T00:33:53;102134.38;;;7.45;100.00
69836;BME280;57132;51.972;4.450;2023-02-02T00:36:19;102137.03;;;7.45;100.00
69836;BME280;57132;51.972;4.450;2023-02-02T00:38:45;102137.03;;;7.45;100.00
69836;BME280;57132;51.972;4.450;2023-02-02T00:41:11;102128.16;;;7.44;100.00
69836;BME280;57132;51.972;4.450;2023-02-02T00:43:36;102139.63;;;7.46;100.00
69836;BME280;57132;51.972;4.450;2023-02-02T00:46:02;102143.13;;;7.47;100.00
69836;BME280;57132;51.972;4.450;2023-02-02T00:48:27;102137.91;;;7.45;100.00
69836;BME280;57132;51.972;4.450;2023-02-02T00:50:53;102146.75;;;7.44;100.00
69836;BME280;57132;51.972;4.450;2023-02-02T00:53:18;102138.00;;;7.42;100.00
69836;BME280;57132;51.972;4.450;2023-02-02T00:55:44;102136.28;;;7.41;100.00
69836;BME280;57132;51.972;4.450;2023-02-02T00:58:09;102145.09;;;7.42;100.00
69836;BME280;57132;51.972;4.450;2023-02-02T01:00:35;102136.28;;;7.41;100.00
69836;BME280;57132;51.972;4.450;2023-02-02T01:03:02;102138.97;;;7.39;100.00
69836;BME280;57132;51.972;4.450;2023-02-02T01:05:33;102141.63;;;7.39;100.00
69836;BME280;57132;51.972;4.450;2023-02-02T01:07:59;102146.03;;;7.41;100.00
69836;BME280;57132;51.972;4.450;2023-02-02T01:10:26;102138.94;;;7.41;100.00
69836;BME280;57132;51.972;4.450;2023-02-02T01:12:51;102137.91;;;7.45;100.00
69836;BME280;57132;51.972;4.450;2023-02-02T01:15:17;102130.78;;;7.46;100.00
69836;BME280;57132;51.972;4.450;2023-02-02T01:17:42;102142.28;;;7.46;100.00
69836;BME280;57132;51.972;4.450;2023-02-02T01:20:13;102143.13;;;7.47;100.00
69836;BME280;57132;51.972;4.450;2023-02-02T01:22:40;102121.94;;;7.45;100.00
69836;BME280;57132;51.972;4.450;2023-02-02T01:25:05;102123.75;;;7.45;100.00
69836;BME280;57132;51.972;4.450;2023-02-02T01:27:30;102130.81;;;7.44;100.00
69836;BME280;57132;51.972;4.450;2023-02-02T01:29:56;102121.13;;;7.43;100.00
69836;BME280;57132;51.972;4.450;2023-02-02T01:32:21;102129.16;;;7.42;100.00
69836;BME280;57132;51.972;4.450;2023-02-02T01:34:46;102130.13;;;7.39;100.00
69836;BME280;57132;51.972;4.450;2023-02-02T01:37:12;102133.81;;;7.35;100.00
69836;BME280;57132;51.972;4.450;2023-02-02T01:39:37;102131.25;;;7.33;100.00
69836;BME280;57132;51.972;4.450;2023-02-02T01:42:11;102125.09;;;7.31;100.00
69836;BME280;57132;51.972;4.450;2023-02-02T01:45:06;102128.63;;;7.32;100.00
69836;BME280;57132;51.972;4.450;2023-02-02T01:47:41;102135.69;;;7.33;100.00
69836;BME280;57132;51.972;4.450;2023-02-02T01:50:10;102142.75;;;7.32;100.00
69836;BME280;57132;51.972;4.450;2023-02-02T01:52:37;102142.75;;;7.32;100.00
69836;BME280;57132;51.972;4.450;2023-02-02T01:55:07;102140.19;;;7.31;100.00
69836;BME280;57132;51.972;4.450;2023-02-02T01:57:45;102136.56;;;7.33;100.00
69836;BME280;57132;51.972;4.450;2023-02-02T02:00:14;102134.78;;;7.32;100.00
69836;BME280;57132;51.972;4.450;2023-02-02T02:02:43;102141.91;;;7.32;100.00
69836;BME280;57132;51.972;4.450;2023-02-02T02:05:10;102143.66;;;7.33;100.00
69836;BME280;57132;51.972;4.450;2023-02-02T02:07:38;102139.25;;;7.32;100.00
69836;BME280;57132;51.972;4.450;2023-02-02T02:10:04;102135.69;;;7.33;100.00
69836;BME280;57132;51.972;4.450;2023-02-02T02:12:30;102143.59;;;7.34;100.00
69836;BME280;57132;51.972;4.450;2023-02-02T02:14:55;102144.44;;;7.35;100.00
69836;BME280;57132;51.972;4.450;2023-02-02T02:23:32;102132.00;;;7.37;100.00
69836;BME280;57132;51.972;4.450;2023-02-02T02:32:22;102133.78;;;7.36;100.00
69836;BME280;57132;51.972;4.450;2023-02-02T02:35:09;102133.81;;;7.35;100.00
69836;BME280;57132;51.972;4.450;2023-02-02T02:37:46;102135.63;;;7.34;100.00
69836;BME280;57132;51.972;4.450;2023-02-02T02:40:21;102130.38;;;7.33;100.00
69836;BME280;57132;51.972;4.450;2023-02-02T02:42:56;102137.41;;;7.34;100.00
69836;BME280;57132;51.972;4.450;2023-02-02T02:45:23;102135.50;;;7.37;100.00
69836;BME280;57132;51.972;4.450;2023-02-02T02:47:51;102137.31;;;7.37;100.00
69836;BME280;57132;51.972;4.450;2023-02-02T02:50:16;102139.09;;;7.36;100.00
69836;BME280;57132;51.972;4.450;2023-02-02T02:52:44;102135.44;;;7.39;100.00
69836;BME280;57132;51.972;4.450;2023-02-02T02:55:14;102146.03;;;7.41;100.00
69836;BME280;57132;51.972;4.450;2023-02-02T03:03:18;102113.16;;;7.43;100.00
69836;BME280;57132;51.972;4.450;2023-02-02T03:11:10;102124.88;;;7.37;100.00
69836;BME280;57132;51.972;4.450;2023-02-02T03:13:37;102116.91;;;7.37;100.00
69836;BME280;57132;51.972;4.450;2023-02-02T03:16:03;102127.56;;;7.37;100.00
69836;BME280;57132;51.972;4.450;2023-02-02T03:18:30;102131.94;;;7.38;100.00
69836;BME280;57132;51.972;4.450;2023-02-02T03:20:56;102127.56;;;7.37;100.00
69836;BME280;57132;51.972;4.450;2023-02-02T03:23:22;102129.28;;;7.38;100.00
69836;BME280;57132;51.972;4.450;2023-02-02T03:25:47;102129.34;;;7.37;100.00
69836;BME280;57132;51.972;4.450;2023-02-02T03:28:14;102138.09;;;7.39;100.00
69836;BME280;57132;51.972;4.450;2023-02-02T03:30:41;102146.06;;;7.39;100.00
69836;BME280;57132;51.972;4.450;2023-02-02T03:33:08;102149.66;;;7.38;100.00
69836;BME280;57132;51.972;4.450;2023-02-02T03:35:34;102160.19;;;7.41;100.00
69836;BME280;57132;51.972;4.450;2023-02-02T03:37:59;102155.72;;;7.42;100.00
69836;BME280;57132;51.972;4.450;2023-02-02T03:40:26;102155.72;;;7.42;100.00
69836;BME280;57132;51.972;4.450;2023-02-02T03:42:53;102154.81;;;7.43;100.00
69836;BME280;57132;51.972;4.450;2023-02-02T03:45:18;102162.69;;;7.44;100.00
69836;BME280;57132;51.972;4.450;2023-02-02T03:47:44;102167.16;;;7.44;100.00
69836;BME280;57132;51.972;4.450;2023-02-02T03:50:09;102167.13;;;7.45;100.00
69836;BME280;57132;51.972;4.450;2023-02-02T03:52:35;102168.94;;;7.43;100.00
69836;BME280;57132;51.972;4.450;2023-02-02T03:55:00;102177.84;;;7.42;100.00
69836;BME280;57132;51.972;4.450;2023-02-02T03:57:26;102172.59;;;7.41;100.00
69836;BME280;57132;51.972;4.450;2023-02-02T03:59:51;102181.44;;;7.41;100.00
69836;BME280;57132;51.972;4.450;2023-02-02T04:02:16;102173.47;;;7.41;100.00
69836;BME280;57132;51.972;4.450;2023-02-02T04:04:42;102181.44;;;7.41;100.00
69836;BME280;57132;51.972;4.450;2023-02-02T04:07:07;102177.84;;;7.42;100.00
69836;BME280;57132;51.972;4.450;2023-02-02T04:09:32;102162.88;;;7.39;100.00
69836;BME280;57132;51.972;4.450;2023-02-02T04:11:58;102166.34;;;7.42;100.00
69836;BME280;57132;51.972;4.450;2023-02-02T04:14:23;102172.53;;;7.42;100.00
69836;BME280;57132;51.972;4.450;2023-02-02T04:16:49;102170.75;;;7.43;100.00
69836;BME280;57132;51.972;4.450;2023-02-02T04:19:14;102171.56;;;7.45;100.00
69836;BME280;57132;51.972;4.450;2023-02-02T04:21:40;102169.78;;;7.45;100.00
69836;BME280;57132;51.972;4.450;2023-02-02T04:24:06;102163.59;;;7.45;100.00
69836;BME280;57132;51.972;4.450;2023-02-02T04:26:32;102169.81;;;7.44;100.00
69836;BME280;57132;51.972;4.450;2023-02-02T04:28:57;102172.53;;;7.42;100.00
69836;BME280;57132;51.972;4.450;2023-02-02T04:31:23;102167.28;;;7.41;100.00
69836;BME280;57132;51.972;4.450;2023-02-02T04:33:48;102168.16;;;7.41;100.00
69836;BME280;57132;51.972;4.450;2023-02-02T04:36:14;102169.13;;;7.38;100.00
69836;BME280;57132;51.972;4.450;2023-02-02T04:38:39;102173.50;;;7.39;100.00
69836;BME280;57132;51.972;4.450;2023-02-02T04:41:06;102180.56;;;7.41;100.00
69836;BME280;57132;51.972;4.450;2023-02-02T04:43:33;102173.47;;;7.41;100.00
69836;BME280;57132;51.972;4.450;2023-02-02T04:45:58;102184.09;;;7.41;100.00
69836;BME280;57132;51.972;4.450;2023-02-02T04:48:24;102178.78;;;7.41;100.00
69836;BME280;57132;51.972;4.450;2023-02-02T04:50:49;102181.47;;;7.39;100.00
69836;BME280;57132;51.972;4.450;2023-02-02T04:53:14;102180.56;;;7.41;100.00
69836;BME280;57132;51.972;4.450;2023-02-02T04:55:40;102188.47;;;7.42;100.00
69836;BME280;57132;51.972;4.450;2023-02-02T04:58:05;102185.81;;;7.42;100.00
69836;BME280;57132;51.972;4.450;2023-02-02T05:00:30;102180.44;;;7.44;100.00
69836;BME280;57132;51.972;4.450;2023-02-02T05:02:56;102183.09;;;7.44;100.00
69836;BME280;57132;51.972;4.450;2023-02-02T05:05:21;102184.03;;;7.43;100.00
69836;BME280;57132;51.972;4.450;2023-02-02T05:07:46;102180.56;;;7.41;100.00
69836;BME280;57132;51.972;4.450;2023-02-02T05:10:12;102181.44;;;7.41;100.00
69836;BME280;57132;51.972;4.450;2023-02-02T05:12:37;102178.88;;;7.38;100.00
69836;BME280;57132;51.972;4.450;2023-02-02T05:15:03;102188.69;;;7.36;100.00
69836;BME280;57132;51.972;4.450;2023-02-02T05:17:30;102185.16;;;7.35;100.00
69836;BME280;57132;51.972;4.450;2023-02-02T05:19:55;102187.81;;;7.35;100.00
69836;BME280;57132;51.972;4.450;2023-02-02T05:22:21;102193.19;;;7.34;100.00
69836;BME280;57132;51.972;4.450;2023-02-02T05:24:46;102187.88;;;7.34;100.00
69836;BME280;57132;51.972;4.450;2023-02-02T05:27:11;102180.84;;;7.33;100.00
69836;BME280;57132;51.972;4.450;2023-02-02T05:29:37;102183.59;;;7.30;100.00
69836;BME280;57132;51.972;4.450;2023-02-02T05:32:02;102182.75;;;7.29;100.00
69836;BME280;57132;51.972;4.450;2023-02-02T05:34:28;102195.09;;;7.30;100.00
69836;BME280;57132;51.972;4.450;2023-02-02T05:36:53;102177.34;;;7.31;100.00
69836;BME280;57132;51.972;4.450;2023-02-02T05:39:18;102195.09;;;7.30;100.00
69836;BME280;57132;51.972;4.450;2023-02-02T05:41:44;102195.94;;;7.31;100.00
69836;BME280;57132;51.972;4.450;2023-02-02T05:44:13;102186.19;;;7.31;100.00
69836;BME280;57132;51.972;4.450;2023-02-02T05:46:38;102191.47;;;7.33;100.00
69836;BME280;57132;51.972;4.450;2023-02-02T05:49:04;102185.25;;;7.32;100.00
69836;BME280;57132;51.972;4.450;2023-02-02T05:51:54;102184.47;;;7.30;100.00
69836;BME280;57132;51.972;4.450;2023-02-02T05:54:18;102184.47;;;7.30;100.00
69836;BME280;57132;51.972;4.450;2023-02-02T05:56:49;102187.97;;;7.31;100.00
69836;BME280;57132;51.972;4.450;2023-02-02T05:59:17;102205.78;;;7.29;100.00
69836;BME280;57132;51.972;4.450;2023-02-02T06:01:43;102192.44;;;7.30;100.00
69836;BME280;57132;51.972;4.450;2023-02-02T06:04:09;102199.53;;;7.30;100.00
69836;BME280;57132;51.972;4.450;2023-02-02T06:06:34;102208.38;;;7.30;100.00
69836;BME280;57132;51.972;4.450;2023-02-02T06:09:02;102203.06;;;7.30;100.00
69836;BME280;57132;51.972;4.450;2023-02-02T06:11:28;102207.50;;;7.30;100.00
69836;BME280;57132;51.972;4.450;2023-02-02T06:13:53;102211.88;;;7.31;100.00
69836;BME280;57132;51.972;4.450;2023-02-02T06:16:19;102216.34;;;7.30;100.00
69836;BME280;57132;51.972;4.450;2023-02-02T06:18:44;102207.44;;;7.31;100.00
69836;BME280;57132;51.972;4.450;2023-02-02T06:21:10;102214.47;;;7.32;100.00
69836;BME280;57132;51.972;4.450;2023-02-02T06:23:35;102215.38;;;7.33;100.00
69836;BME280;57132;51.972;4.450;2023-02-02T06:26:01;102216.16;;;7.35;100.00
69836;BME280;57132;51.972;4.450;2023-02-02T06:28:31;102221.53;;;7.33;100.00
69836;BME280;57132;51.972;4.450;2023-02-02T06:31:02;102212.66;;;7.34;100.00
69836;BME280;57132;51.972;4.450;2023-02-02T06:33:28;102240.91;;;7.37;100.00
69836;BME280;57132;51.972;4.450;2023-02-02T06:35:58;102240.03;;;7.36;100.00
69836;BME280;57132;51.972;4.450;2023-02-02T06:38:24;102254.94;;;7.41;100.00
69836;BME280;57132;51.972;4.450;2023-02-02T06:40:49;102261.13;;;7.41;100.00
69836;BME280;57132;51.972;4.450;2023-02-02T06:43:14;102252.31;;;7.39;100.00
69836;BME280;57132;51.972;4.450;2023-02-02T06:45:40;102239.91;;;7.39;100.00
69836;BME280;57132;51.972;4.450;2023-02-02T06:48:07;102246.16;;;7.38;100.00
69836;BME280;57132;51.972;4.450;2023-02-02T06:50:36;102237.31;;;7.38;100.00
69836;BME280;57132;51.972;4.450;2023-02-02T06:53:01;102228.47;;;7.37;100.00
69836;BME280;57132;51.972;4.450;2023-02-02T06:55:27;102227.72;;;7.34;100.00
69836;BME280;57132;51.972;4.450;2023-02-02T06:57:56;102224.22;;;7.32;100.00
69836;BME280;57132;51.972;4.450;2023-02-02T07:00:22;102226.91;;;7.32;100.00
69836;BME280;57132;51.972;4.450;2023-02-02T07:02:48;102218.94;;;7.32;100.00
69836;BME280;57132;51.972;4.450;2023-02-02T07:05:13;102231.31;;;7.33;100.00
69836;BME280;57132;51.972;4.450;2023-02-02T07:07:39;102243.69;;;7.32;100.00
69836;BME280;57132;51.972;4.450;2023-02-02T07:10:04;102242.91;;;7.30;100.00
69836;BME280;57132;51.972;4.450;2023-02-02T07:12:30;102248.28;;;7.29;100.00
69836;BME280;57132;51.972;4.450;2023-02-02T07:14:55;102249.16;;;7.28;100.00
69836;BME280;57132;51.972;4.450;2023-02-02T07:17:21;102261.59;;;7.27;100.00
69836;BME280;57132;51.972;4.450;2023-02-02T07:19:46;102260.88;;;7.22;100.00
69836;BME280;57132;51.972;4.450;2023-02-02T07:22:12;102260.03;;;7.22;100.00
69836;BME280;57132;51.972;4.450;2023-02-02T07:24:41;102252.22;;;7.17;100.00
69836;BME280;57132;51.972;4.450;2023-02-02T07:27:06;102258.38;;;7.18;100.00
69836;BME280;57132;51.972;4.450;2023-02-02T07:29:32;102268.25;;;7.14;100.00
69836;BME280;57132;51.972;4.450;2023-02-02T07:31:58;102268.28;;;7.12;100.00
69836;BME280;57132;51.972;4.450;2023-02-02T07:34:24;102264.75;;;7.12;100.00
69836;BME280;57132;51.972;4.450;2023-02-02T07:36:49;102269.19;;;7.11;100.00
69836;BME280;57132;51.972;4.450;2023-02-02T07:39:15;102281.56;;;7.12;100.00
69836;BME280;57132;51.972;4.450;2023-02-02T07:41:40;102300.19;;;7.11;100.00
69836;BME280;57132;51.972;4.450;2023-02-02T07:44:14;102299.25;;;7.13;100.00
69836;BME280;57132;51.972;4.450;2023-02-02T07:46:42;102299.28;;;7.12;100.00
69836;BME280;57132;51.972;4.450;2023-02-02T07:49:11;102303.72;;;7.11;100.00
69836;BME280;57132;51.972;4.450;2023-02-02T07:51:37;102304.56;;;7.13;100.00
69836;BME280;57132;51.972;4.450;2023-02-02T07:54:03;102306.34;;;7.13;100.00
69836;BME280;57132;51.972;4.450;2023-02-02T07:56:28;102308.00;;;7.15;100.00
69836;BME280;57132;51.972;4.450;2023-02-02T07:58:55;102310.66;;;7.15;100.00
69836;BME280;57132;51.972;4.450;2023-02-02T08:01:21;102308.00;;;7.15;100.00
69836;BME280;57132;51.972;4.450;2023-02-02T08:03:47;102312.47;;;7.15;100.00
69836;BME280;57132;51.972;4.450;2023-02-02T08:06:33;102317.75;;;7.15;100.00
69836;BME280;57132;51.972;4.450;2023-02-02T08:09:00;102301.84;;;7.15;100.00
69836;BME280;57132;51.972;4.450;2023-02-02T08:11:27;102316.81;;;7.18;100.00
69836;BME280;57132;51.972;4.450;2023-02-02T08:13:55;102307.97;;;7.17;100.00
69836;BME280;57132;51.972;4.450;2023-02-02T08:16:22;102301.69;;;7.20;100.00
69836;BME280;57132;51.972;4.450;2023-02-02T08:18:49;102312.25;;;7.21;100.00
69836;BME280;57132;51.972;4.450;2023-02-02T08:21:15;102316.59;;;7.24;100.00
69836;BME280;57132;51.972;4.450;2023-02-02T08:23:41;102313.84;;;7.27;100.00
69836;BME280;57132;51.972;4.450;2023-02-02T08:26:14;102323.53;;;7.28;100.00
69836;BME280;57132;51.972;4.450;2023-02-02T08:28:42;102325.03;;;7.36;100.00
69836;BME280;57132;51.972;4.450;2023-02-02T08:31:10;102330.19;;;7.41;100.00
69836;BME280;57132;51.972;4.450;2023-02-02T08:33:37;102338.03;;;7.44;100.00
69836;BME280;57132;51.972;4.450;2023-02-02T08:36:03;102332.69;;;7.46;100.00
69836;BME280;57132;51.972;4.450;2023-02-02T08:38:29;102335.38;;;7.44;100.00
69836;BME280;57132;51.972;4.450;2023-02-02T08:40:54;102337.22;;;7.42;100.00
69836;BME280;57132;51.972;4.450;2023-02-02T08:43:19;102343.41;;;7.43;100.00
69836;BME280;57132;51.972;4.450;2023-02-02T08:45:45;102339.81;;;7.44;100.00
69836;BME280;57132;51.972;4.450;2023-02-02T08:48:12;102348.63;;;7.46;100.00
69836;BME280;57132;51.972;4.450;2023-02-02T08:50:38;102343.31;;;7.46;100.00
69836;BME280;57132;51.972;4.450;2023-02-02T08:53:04;102344.97;;;7.48;100.00
69836;BME280;57132;51.972;4.450;2023-02-02T08:55:29;102344.09;;;7.49;100.00
69836;BME280;57132;51.972;4.450;2023-02-02T08:57:55;102352.84;;;7.51;100.00
69836;BME280;57132;51.972;4.450;2023-02-02T09:00:20;102351.91;;;7.54;100.00
69836;BME280;57132;51.972;4.450;2023-02-02T09:02:49;102344.72;;;7.56;100.00
69836;BME280;57132;51.972;4.450;2023-02-02T09:05:15;102365.03;;;7.58;100.00
69836;BME280;57132;51.972;4.450;2023-02-02T09:07:40;102358.06;;;7.54;100.00
69836;BME280;57132;51.972;4.450;2023-02-02T09:10:09;102363.38;;;7.54;100.00
69836;BME280;57132;51.972;4.450;2023-02-02T09:12:34;102369.56;;;7.55;100.00
69836;BME280;57132;51.972;4.450;2023-02-02T09:15:01;102375.75;;;7.55;100.00
69836;BME280;57132;51.972;4.450;2023-02-02T09:17:27;102367.75;;;7.57;100.00
69836;BME280;57132;51.972;4.450;2023-02-02T09:19:53;102378.31;;;7.58;100.00
69836;BME280;57132;51.972;4.450;2023-02-02T09:22:19;102378.13;;;7.64;100.00
69836;BME280;57132;51.972;4.450;2023-02-02T09:24:45;102372.53;;;7.72;100.00
69836;BME280;57132;51.972;4.450;2023-02-02T09:27:10;102379.31;;;7.81;100.00
69836;BME280;57132;51.972;4.450;2023-02-02T09:29:36;102378.03;;;7.93;100.00
69836;BME280;57132;51.972;4.450;2023-02-02T09:32:01;102384.72;;;8.04;100.00
69836;BME280;57132;51.972;4.450;2023-02-02T09:34:26;102380.88;;;8.11;100.00
69836;BME280;57132;51.972;4.450;2023-02-02T09:36:52;102386.38;;;8.32;100.00
69836;BME280;57132;51.972;4.450;2023-02-02T09:39:18;102384.84;;;8.50;100.00
69836;BME280;57132;51.972;4.450;2023-02-02T09:52:36;102378.84;;;8.68;100.00
69836;BME280;57132;51.972;4.450;2023-02-02T09:58:18;102376.34;;;8.64;100.00
69836;BME280;57132;51.972;4.450;2023-02-02T10:00:53;102380.84;;;8.61;100.00
69836;BME280;57132;51.972;4.450;2023-02-02T10:03:27;102388.03;;;8.59;100.00
69836;BME280;57132;51.972;4.450;2023-02-02T10:08:41;102391.53;;;8.36;100.00
69836;BME280;57132;51.972;4.450;2023-02-02T10:13:48;102406.91;;;8.28;100.00
69836;BME280;57132;51.972;4.450;2023-02-02T10:16:18;102411.19;;;8.32;100.00
69836;BME280;57132;51.972;4.450;2023-02-02T10:18:58;102399.78;;;8.29;100.00
69836;BME280;57132;51.972;4.450;2023-02-02T10:21:39;102409.38;;;8.33;100.00
69836;BME280;57132;51.972;4.450;2023-02-02T10:24:19;102408.75;;;8.51;100.00
69836;BME280;57132;51.972;4.450;2023-02-02T10:26:49;102410.63;;;8.95;100.00
69836;BME280;57132;51.972;4.450;2023-02-02T10:34:50;102414.50;;;9.53;100.00
69836;BME280;57132;51.972;4.450;2023-02-02T10:43:21;102430.50;;;9.31;100.00
69836;BME280;57132;51.972;4.450;2023-02-02T10:46:27;102440.59;;;9.23;100.00
69836;BME280;57132;51.972;4.450;2023-02-02T10:51:56;102436.97;;;9.02;100.00
69836;BME280;57132;51.972;4.450;2023-02-02T10:54:46;102428.28;;;8.97;100.00
69836;BME280;57132;51.972;4.450;2023-02-02T10:57:21;102433.22;;;9.08;100.00
69836;BME280;57132;51.972;4.450;2023-02-02T11:02:29;102418.47;;;8.99;100.00
69836;BME280;57132;51.972;4.450;2023-02-02T11:04:54;102420.09;;;9.03;100.00
69836;BME280;57132;51.972;4.450;2023-02-02T11:07:38;102419.66;;;8.91;100.00
69836;BME280;57132;51.972;4.450;2023-02-02T11:10:04;102420.00;;;8.83;100.00
69836;BME280;57132;51.972;4.450;2023-02-02T11:12:40;102427.16;;;8.81;100.00
69836;BME280;57132;51.972;4.450;2023-02-02T11:15:22;102423.63;;;8.80;100.00
69836;BME280;57132;51.972;4.450;2023-02-02T11:17:49;102425.41;;;8.80;100.00
69836;BME280;57132;51.972;4.450;2023-02-02T11:20:32;102426.78;;;8.67;100.00
69836;BME280;57132;51.972;4.450;2023-02-02T11:23:03;102428.56;;;8.68;100.00
69836;BME280;57132;51.972;4.450;2023-02-02T11:25:34;102421.63;;;8.62;100.00
69836;BME280;57132;51.972;4.450;2023-02-02T11:28:09;102433.41;;;8.56;100.00
69836;BME280;57132;51.972;4.450;2023-02-02T11:30:39;102431.81;;;8.51;100.00
69836;BME280;57132;51.972;4.450;2023-02-02T11:33:33;102428.53;;;8.44;100.00
69836;BME280;57132;51.972;4.450;2023-02-02T11:36:04;102429.56;;;8.40;100.00
69836;BME280;57132;51.972;4.450;2023-02-02T11:38:30;102426.94;;;8.38;100.00
69836;BME280;57132;51.972;4.450;2023-02-02T11:40:56;102423.41;;;8.38;100.00
69836;BME280;57132;51.972;4.450;2023-02-02T11:46:04;102418.22;;;8.33;100.00
69836;BME280;57132;51.972;4.450;2023-02-02T11:48:36;102422.91;;;8.27;100.00
69836;BME280;57132;51.972;4.450;2023-02-02T11:51:04;102426.38;;;8.29;100.00
69836;BME280;57132;51.972;4.450;2023-02-02T11:56:07;102436.84;;;8.33;100.00
69836;BME280;57132;51.972;4.450;2023-02-02T11:58:53;102433.53;;;8.27;100.00
69836;BME280;57132;51.972;4.450;2023-02-02T12:01:34;102424.69;;;8.26;100.00
69836;BME280;57132;51.972;4.450;2023-02-02T12:04:02;102420.97;;;8.32;100.00
69836;BME280;57132;51.972;4.450;2023-02-02T12:08:59;102417.81;;;8.46;100.00
69836;BME280;57132;51.972;4.450;2023-02-02T12:17:11;102411.81;;;8.41;100.00
69836;BME280;57132;51.972;4.450;2023-02-02T12:19:51;102414.50;;;8.39;100.00
69836;BME280;57132;51.972;4.450;2023-02-02T12:28:22;102408.09;;;8.20;100.00
69836;BME280;57132;51.972;4.450;2023-02-02T12:36:49;102432.91;;;7.69;100.00
69836;BME280;57132;51.972;4.450;2023-02-02T12:39:36;102427.09;;;7.56;100.00
69836;BME280;57132;51.972;4.450;2023-02-02T12:54:29;102414.75;;;7.27;100.00
69836;BME280;57132;51.972;4.450;2023-02-02T12:56:46;102404.28;;;7.22;100.00
69836;BME280;57132;51.972;4.450;2023-02-02T13:02:03;102400.00;;;7.18;100.00
69836;BME280;57132;51.972;4.450;2023-02-02T13:04:52;102391.00;;;7.22;100.00
69836;BME280;57132;51.972;4.450;2023-02-02T13:13:01;102394.72;;;7.17;100.00
69836;BME280;57132;51.972;4.450;2023-02-02T13:15:33;102394.06;;;7.10;100.00
69836;BME280;57132;51.972;4.450;2023-02-02T13:18:05;102401.25;;;7.06;100.00
69836;BME280;57132;51.972;4.450;2023-02-02T13:23:01;102393.44;;;7.02;100.00
69836;BME280;57132;51.972;4.450;2023-02-02T13:25:33;102389.91;;;7.01;100.00
69836;BME280;57132;51.972;4.450;2023-02-02T13:28:00;102389.84;;;7.03;100.00
69836;BME280;57132;51.972;4.450;2023-02-02T13:30:35;102390.72;;;7.03;100.00
69836;BME280;57132;51.972;4.450;2023-02-02T13:33:12;102387.28;;;7.00;100.00
69836;BME280;57132;51.972;4.450;2023-02-02T13:35:53;102394.28;;;7.02;100.00
69836;BME280;57132;51.972;4.450;2023-02-02T13:38:26;102389.06;;;6.99;100.00
69836;BME280;57132;51.972;4.450;2023-02-02T13:40:56;102400.63;;;6.98;100.00
69836;BME280;57132;51.972;4.450;2023-02-02T13:49:20;102398.97;;;6.94;100.00
69836;BME280;57132;51.972;4.450;2023-02-02T13:57:44;102394.59;;;6.93;100.00
69836;BME280;57132;51.972;4.450;2023-02-02T14:02:44;102409.69;;;6.91;100.00
69836;BME280;57132;51.972;4.450;2023-02-02T14:07:55;102416.84;;;6.89;100.00
69836;BME280;57132;51.972;4.450;2023-02-02T14:10:24;102409.69;;;6.91;100.00
69836;BME280;57132;51.972;4.450;2023-02-02T14:12:51;102412.38;;;6.89;100.00
69836;BME280;57132;51.972;4.450;2023-02-02T14:15:18;102419.50;;;6.87;100.00
69836;BME280;57132;51.972;4.450;2023-02-02T14:26:04;102413.03;;;6.98;100.00
69836;BME280;57132;51.972;4.450;2023-02-02T14:28:42;102419.19;;;6.98;100.00
69836;BME280;57132;51.972;4.450;2023-02-02T14:31:51;102420.88;;;7.01;100.00
69836;BME280;57132;51.972;4.450;2023-02-02T14:34:39;102427.16;;;6.98;100.00
69836;BME280;57132;51.972;4.450;2023-02-02T14:46:21;102447.19;;;7.08;100.00
69836;BME280;57132;51.972;4.450;2023-02-02T14:49:10;102439.22;;;7.08;100.00
69836;BME280;57132;51.972;4.450;2023-02-02T14:51:50;102441.75;;;7.13;100.00
69836;BME280;57132;51.972;4.450;2023-02-02T14:54:38;102437.31;;;7.13;100.00
69836;BME280;57132;51.972;4.450;2023-02-02T14:57:21;102442.47;;;7.18;100.00
69836;BME280;57132;51.972;4.450;2023-02-02T14:59:48;102438.09;;;7.17;100.00
69836;BME280;57132;51.972;4.450;2023-02-02T15:02:19;102443.53;;;7.12;100.00
69836;BME280;57132;51.972;4.450;2023-02-02T15:04:47;102433.81;;;7.13;100.00
69836;BME280;57132;51.972;4.450;2023-02-02T15:09:48;102423.84;;;7.20;100.00
69836;BME280;57132;51.972;4.450;2023-02-02T15:12:36;102434.47;;;7.20;100.00
69836;BME280;57132;51.972;4.450;2023-02-02T15:20:17;102422.66;;;7.28;100.00
69836;BME280;57132;51.972;4.450;2023-02-02T15:25:26;102433.81;;;7.39;100.00
69836;BME280;57132;51.972;4.450;2023-02-02T15:31:04;102433.94;;;7.36;100.00
69836;BME280;57132;51.972;4.450;2023-02-02T15:33:43;102430.41;;;7.36;100.00
69836;BME280;57132;51.972;4.450;2023-02-02T15:36:17;102444.50;;;7.38;100.00